sensor_id;sensor_type;location;lat;lon;timestamp;P1;durP1;ratioP1;P2;durP2;ratioP2
60494;SDS011;46342;49.046;11.920;2022-12-29T00:02:12;5.35;;;3.80;;
60494;SDS011;46342;49.046;11.920;2022-12-29T00:04:38;3.90;;;3.45;;
60494;SDS011;46342;49.046;11.920;2022-12-29T00:07:03;4.65;;;3.45;;
60494;SDS011;46342;49.046;11.920;2022-12-29T00:09:30;9.05;;;3.67;;
60494;SDS011;46342;49.046;11.920;2022-12-29T00:11:57;5.90;;;3.75;;
60494;SDS011;46342;49.046;11.920;2022-12-29T00:14:22;4.50;;;3.50;;
60494;SDS011;46342;49.046;11.920;2022-12-29T00:17:06;4.95;;;3.60;;
60494;SDS011;46342;49.046;11.920;2022-12-29T00:19:32;5.05;;;3.38;;
60494;SDS011;46342;49.046;11.920;2022-12-29T00:22:16;3.90;;;3.30;;
60494;SDS011;46342;49.046;11.920;2022-12-29T00:25:01;4.47;;;3.08;;
60494;SDS011;46342;49.046;11.920;2022-12-29T00:27:31;4.10;;;3.28;;
60494;SDS011;46342;49.046;11.920;2022-12-29T00:30:16;5.20;;;3.60;;
60494;SDS011;46342;49.046;11.920;2022-12-29T00:33:12;5.38;;;3.28;;
60494;SDS011;46342;49.046;11.920;2022-12-29T00:35:59;4.88;;;3.53;;
60494;SDS011;46342;49.046;11.920;2022-12-29T00:38:42;4.40;;;3.50;;
60494;SDS011;46342;49.046;11.920;2022-12-29T00:41:33;4.68;;;3.50;;
60494;SDS011;46342;49.046;11.920;2022-12-29T00:44:17;5.32;;;3.60;;
60494;SDS011;46342;49.046;11.920;2022-12-29T00:46:43;6.40;;;3.80;;
60494;SDS011;46342;49.046;11.920;2022-12-29T00:49:10;4.53;;;3.30;;
60494;SDS011;46342;49.046;11.920;2022-12-29T00:51:56;4.72;;;3.25;;
60494;SDS011;46342;49.046;11.920;2022-12-29T00:54:32;4.05;;;3.05;;
60494;SDS011;46342;49.046;11.920;2022-12-29T00:59:26;3.72;;;3.03;;
60494;SDS011;46342;49.046;11.920;2022-12-29T01:01:52;4.32;;;3.17;;
60494;SDS011;46342;49.046;11.920;2022-12-29T01:04:19;4.32;;;3.40;;
60494;SDS011;46342;49.046;11.920;2022-12-29T01:06:46;5.82;;;3.58;;
60494;SDS011;46342;49.046;11.920;2022-12-29T01:09:12;4.10;;;3.20;;
60494;SDS011;46342;49.046;11.920;2022-12-29T01:11:56;5.30;;;3.50;;
60494;SDS011;46342;49.046;11.920;2022-12-29T01:14:23;4.68;;;3.50;;
60494;SDS011;46342;49.046;11.920;2022-12-29T01:16:49;4.82;;;3.45;;
60494;SDS011;46342;49.046;11.920;2022-12-29T01:19:16;3.45;;;2.70;;
60494;SDS011;46342;49.046;11.920;2022-12-29T01:21:42;6.15;;;3.50;;
60494;SDS011;46342;49.046;11.920;2022-12-29T01:24:07;5.18;;;3.75;;
60494;SDS011;46342;49.046;11.920;2022-12-29T01:26:33;4.78;;;3.58;;
60494;SDS011;46342;49.046;11.920;2022-12-29T01:28:59;4.13;;;3.13;;
60494;SDS011;46342;49.046;11.920;2022-12-29T01:31:24;4.60;;;3.25;;
60494;SDS011;46342;49.046;11.920;2022-12-29T01:33:50;4.43;;;3.53;;
60494;SDS011;46342;49.046;11.920;2022-12-29T01:36:16;4.85;;;3.33;;
60494;SDS011;46342;49.046;11.920;2022-12-29T01:38:42;4.00;;;3.25;;
60494;SDS011;46342;49.046;11.920;2022-12-29T01:41:09;4.78;;;3.47;;
60494;SDS011;46342;49.046;11.920;2022-12-29T01:43:44;4.20;;;3.15;;
60494;SDS011;46342;49.046;11.920;2022-12-29T01:48:49;4.80;;;3.30;;
60494;SDS011;46342;49.046;11.920;2022-12-29T01:51:18;3.85;;;2.95;;
60494;SDS011;46342;49.046;11.920;2022-12-29T01:56:12;4.30;;;3.03;;
60494;SDS011;46342;49.046;11.920;2022-12-29T01:58:43;4.00;;;3.03;;
60494;SDS011;46342;49.046;11.920;2022-12-29T02:01:12;4.53;;;3.42;;
60494;SDS011;46342;49.046;11.920;2022-12-29T02:03:39;3.63;;;3.10;;
60494;SDS011;46342;49.046;11.920;2022-12-29T02:06:07;4.38;;;3.30;;
60494;SDS011;46342;49.046;11.920;2022-12-29T02:08:38;4.18;;;2.85;;
60494;SDS011;46342;49.046;11.920;2022-12-29T02:11:05;4.37;;;3.20;;
60494;SDS011;46342;49.046;11.920;2022-12-29T02:13:31;3.78;;;3.00;;
60494;SDS011;46342;49.046;11.920;2022-12-29T02:21:41;4.53;;;2.97;;
60494;SDS011;46342;49.046;11.920;2022-12-29T02:24:30;3.08;;;2.78;;
60494;SDS011;46342;49.046;11.920;2022-12-29T02:27:25;5.10;;;3.10;;
60494;SDS011;46342;49.046;11.920;2022-12-29T02:33:13;3.60;;;2.97;;
60494;SDS011;46342;49.046;11.920;2022-12-29T02:36:00;5.35;;;3.03;;
60494;SDS011;46342;49.046;11.920;2022-12-29T02:41:58;4.07;;;3.13;;
60494;SDS011;46342;49.046;11.920;2022-12-29T02:47:18;4.45;;;3.15;;
60494;SDS011;46342;49.046;11.920;2022-12-29T02:49:58;4.32;;;3.10;;
60494;SDS011;46342;49.046;11.920;2022-12-29T02:55:10;4.70;;;2.67;;
60494;SDS011;46342;49.046;11.920;2022-12-29T02:57:36;5.65;;;3.17;;
60494;SDS011;46342;49.046;11.920;2022-12-29T03:00:36;3.45;;;2.80;;
60494;SDS011;46342;49.046;11.920;2022-12-29T03:11:00;4.55;;;2.90;;
60494;SDS011;46342;49.046;11.920;2022-12-29T03:16:21;3.67;;;3.17;;
60494;SDS011;46342;49.046;11.920;2022-12-29T03:19:14;5.20;;;2.70;;
60494;SDS011;46342;49.046;11.920;2022-12-29T03:21:46;6.05;;;3.08;;
60494;SDS011;46342;49.046;11.920;2022-12-29T03:24:36;4.97;;;2.78;;
60494;SDS011;46342;49.046;11.920;2022-12-29T03:27:06;3.38;;;2.67;;
60494;SDS011;46342;49.046;11.920;2022-12-29T03:29:35;3.45;;;2.75;;
60494;SDS011;46342;49.046;11.920;2022-12-29T03:32:05;4.05;;;2.90;;
60494;SDS011;46342;49.046;11.920;2022-12-29T03:37:08;2.92;;;2.40;;
60494;SDS011;46342;49.046;11.920;2022-12-29T03:39:38;3.42;;;2.85;;
60494;SDS011;46342;49.046;11.920;2022-12-29T03:42:09;3.33;;;2.75;;
60494;SDS011;46342;49.046;11.920;2022-12-29T03:44:40;4.43;;;2.67;;
60494;SDS011;46342;49.046;11.920;2022-12-29T03:49:33;3.42;;;2.53;;
60494;SDS011;46342;49.046;11.920;2022-12-29T03:51:58;3.88;;;2.65;;
60494;SDS011;46342;49.046;11.920;2022-12-29T03:54:24;4.40;;;2.63;;
60494;SDS011;46342;49.046;11.920;2022-12-29T03:56:50;5.05;;;3.13;;
60494;SDS011;46342;49.046;11.920;2022-12-29T03:59:15;3.90;;;2.97;;
60494;SDS011;46342;49.046;11.920;2022-12-29T04:01:41;3.60;;;2.63;;
60494;SDS011;46342;49.046;11.920;2022-12-29T04:04:07;3.67;;;2.92;;
60494;SDS011;46342;49.046;11.920;2022-12-29T04:06:32;3.85;;;2.78;;
60494;SDS011;46342;49.046;11.920;2022-12-29T04:08:58;4.88;;;3.08;;
60494;SDS011;46342;49.046;11.920;2022-12-29T04:11:24;4.75;;;2.80;;
60494;SDS011;46342;49.046;11.920;2022-12-29T04:13:49;3.35;;;2.65;;
60494;SDS011;46342;49.046;11.920;2022-12-29T04:16:15;3.72;;;2.88;;
60494;SDS011;46342;49.046;11.920;2022-12-29T04:18:40;4.07;;;2.60;;
60494;SDS011;46342;49.046;11.920;2022-12-29T04:21:06;3.33;;;2.67;;
60494;SDS011;46342;49.046;11.920;2022-12-29T04:23:33;3.55;;;2.85;;
60494;SDS011;46342;49.046;11.920;2022-12-29T04:26:01;4.00;;;2.80;;
60494;SDS011;46342;49.046;11.920;2022-12-29T04:28:29;3.80;;;2.70;;
60494;SDS011;46342;49.046;11.920;2022-12-29T04:30:54;3.13;;;2.53;;
60494;SDS011;46342;49.046;11.920;2022-12-29T04:33:20;3.95;;;2.70;;
60494;SDS011;46342;49.046;11.920;2022-12-29T04:35:46;4.72;;;2.70;;
60494;SDS011;46342;49.046;11.920;2022-12-29T04:38:13;4.68;;;2.95;;
60494;SDS011;46342;49.046;11.920;2022-12-29T04:40:40;6.47;;;2.92;;
60494;SDS011;46342;49.046;11.920;2022-12-29T04:43:07;4.18;;;3.15;;
60494;SDS011;46342;49.046;11.920;2022-12-29T04:45:32;3.83;;;2.67;;
60494;SDS011;46342;49.046;11.920;2022-12-29T04:47:58;3.25;;;2.45;;
60494;SDS011;46342;49.046;11.920;2022-12-29T04:50:24;4.18;;;2.97;;
60494;SDS011;46342;49.046;11.920;2022-12-29T04:52:49;3.65;;;2.67;;
60494;SDS011;46342;49.046;11.920;2022-12-29T04:55:15;4.53;;;3.05;;
60494;SDS011;46342;49.046;11.920;2022-12-29T04:57:41;3.10;;;2.75;;
60494;SDS011;46342;49.046;11.920;2022-12-29T05:00:06;3.40;;;2.97;;
60494;SDS011;46342;49.046;11.920;2022-12-29T05:02:34;4.03;;;2.60;;
60494;SDS011;46342;49.046;11.920;2022-12-29T05:05:00;4.68;;;2.70;;
60494;SDS011;46342;49.046;11.920;2022-12-29T05:07:26;3.88;;;2.92;;
60494;SDS011;46342;49.046;11.920;2022-12-29T05:09:51;2.92;;;2.63;;
60494;SDS011;46342;49.046;11.920;2022-12-29T05:12:17;4.72;;;2.80;;
60494;SDS011;46342;49.046;11.920;2022-12-29T05:14:42;2.67;;;2.20;;
60494;SDS011;46342;49.046;11.920;2022-12-29T05:17:08;3.83;;;2.50;;
60494;SDS011;46342;49.046;11.920;2022-12-29T05:19:34;5.00;;;3.08;;
60494;SDS011;46342;49.046;11.920;2022-12-29T05:21:59;4.18;;;2.72;;
60494;SDS011;46342;49.046;11.920;2022-12-29T05:24:25;2.95;;;2.58;;
60494;SDS011;46342;49.046;11.920;2022-12-29T05:26:50;4.65;;;2.50;;
60494;SDS011;46342;49.046;11.920;2022-12-29T05:29:16;3.45;;;2.83;;
60494;SDS011;46342;49.046;11.920;2022-12-29T05:31:42;3.47;;;2.55;;
60494;SDS011;46342;49.046;11.920;2022-12-29T05:34:08;3.50;;;2.78;;
60494;SDS011;46342;49.046;11.920;2022-12-29T05:36:35;3.55;;;2.40;;
60494;SDS011;46342;49.046;11.920;2022-12-29T05:39:01;5.35;;;2.53;;
60494;SDS011;46342;49.046;11.920;2022-12-29T05:41:27;2.28;;;2.05;;
60494;SDS011;46342;49.046;11.920;2022-12-29T05:43:52;2.67;;;2.35;;
60494;SDS011;46342;49.046;11.920;2022-12-29T05:46:18;5.18;;;2.80;;
60494;SDS011;46342;49.046;11.920;2022-12-29T05:48:44;3.50;;;2.47;;
60494;SDS011;46342;49.046;11.920;2022-12-29T05:51:09;4.55;;;3.20;;
60494;SDS011;46342;49.046;11.920;2022-12-29T05:53:35;4.35;;;2.38;;
60494;SDS011;46342;49.046;11.920;2022-12-29T05:56:00;3.53;;;2.78;;
60494;SDS011;46342;49.046;11.920;2022-12-29T05:58:26;4.43;;;2.85;;
60494;SDS011;46342;49.046;11.920;2022-12-29T06:00:51;3.13;;;2.60;;
60494;SDS011;46342;49.046;11.920;2022-12-29T06:03:17;4.53;;;2.72;;
60494;SDS011;46342;49.046;11.920;2022-12-29T06:05:44;3.83;;;2.55;;
60494;SDS011;46342;49.046;11.920;2022-12-29T06:08:13;5.03;;;3.00;;
60494;SDS011;46342;49.046;11.920;2022-12-29T06:10:38;3.47;;;2.58;;
60494;SDS011;46342;49.046;11.920;2022-12-29T06:13:04;3.83;;;2.60;;
60494;SDS011;46342;49.046;11.920;2022-12-29T06:15:31;5.72;;;2.90;;
60494;SDS011;46342;49.046;11.920;2022-12-29T06:17:57;3.72;;;2.75;;
60494;SDS011;46342;49.046;11.920;2022-12-29T06:20:23;3.22;;;2.40;;
60494;SDS011;46342;49.046;11.920;2022-12-29T06:22:48;3.00;;;2.45;;
60494;SDS011;46342;49.046;11.920;2022-12-29T06:25:14;3.25;;;2.60;;
60494;SDS011;46342;49.046;11.920;2022-12-29T06:27:40;3.15;;;2.60;;
60494;SDS011;46342;49.046;11.920;2022-12-29T06:30:05;3.10;;;2.33;;
60494;SDS011;46342;49.046;11.920;2022-12-29T06:32:32;5.18;;;2.67;;
60494;SDS011;46342;49.046;11.920;2022-12-29T06:34:57;4.13;;;2.95;;
60494;SDS011;46342;49.046;11.920;2022-12-29T06:37:24;4.10;;;2.67;;
60494;SDS011;46342;49.046;11.920;2022-12-29T06:39:49;3.17;;;2.47;;
60494;SDS011;46342;49.046;11.920;2022-12-29T06:42:15;5.82;;;3.00;;
60494;SDS011;46342;49.046;11.920;2022-12-29T06:44:41;3.92;;;2.83;;
60494;SDS011;46342;49.046;11.920;2022-12-29T06:47:06;3.90;;;3.15;;
60494;SDS011;46342;49.046;11.920;2022-12-29T06:49:32;5.35;;;3.60;;
60494;SDS011;46342;49.046;11.920;2022-12-29T06:51:57;3.33;;;2.97;;
60494;SDS011;46342;49.046;11.920;2022-12-29T06:54:25;4.95;;;3.38;;
60494;SDS011;46342;49.046;11.920;2022-12-29T06:56:51;4.70;;;3.10;;
60494;SDS011;46342;49.046;11.920;2022-12-29T06:59:16;3.55;;;2.95;;
60494;SDS011;46342;49.046;11.920;2022-12-29T07:01:42;3.53;;;2.90;;
60494;SDS011;46342;49.046;11.920;2022-12-29T07:04:07;3.85;;;2.80;;
60494;SDS011;46342;49.046;11.920;2022-12-29T07:06:33;4.75;;;3.10;;
60494;SDS011;46342;49.046;11.920;2022-12-29T07:08:59;4.07;;;2.50;;
60494;SDS011;46342;49.046;11.920;2022-12-29T07:11:24;4.53;;;3.10;;
60494;SDS011;46342;49.046;11.920;2022-12-29T07:13:50;6.88;;;4.25;;
60494;SDS011;46342;49.046;11.920;2022-12-29T07:16:16;10.07;;;5.35;;
60494;SDS011;46342;49.046;11.920;2022-12-29T07:18:42;5.65;;;3.53;;
60494;SDS011;46342;49.046;11.920;2022-12-29T07:21:07;7.68;;;4.18;;
60494;SDS011;46342;49.046;11.920;2022-12-29T07:23:33;5.03;;;3.38;;
60494;SDS011;46342;49.046;11.920;2022-12-29T07:26:07;6.32;;;3.35;;
60494;SDS011;46342;49.046;11.920;2022-12-29T07:28:36;4.20;;;3.40;;
60494;SDS011;46342;49.046;11.920;2022-12-29T07:31:03;3.78;;;2.70;;
60494;SDS011;46342;49.046;11.920;2022-12-29T07:33:30;4.22;;;3.05;;
60494;SDS011;46342;49.046;11.920;2022-12-29T07:35:56;3.40;;;2.80;;
60494;SDS011;46342;49.046;11.920;2022-12-29T07:38:22;3.50;;;2.80;;
60494;SDS011;46342;49.046;11.920;2022-12-29T07:40:47;4.47;;;3.08;;
60494;SDS011;46342;49.046;11.920;2022-12-29T07:43:13;4.47;;;3.13;;
60494;SDS011;46342;49.046;11.920;2022-12-29T07:45:39;4.63;;;3.30;;
60494;SDS011;46342;49.046;11.920;2022-12-29T07:48:05;3.55;;;2.72;;
60494;SDS011;46342;49.046;11.920;2022-12-29T07:50:33;3.87;;;2.83;;
60494;SDS011;46342;49.046;11.920;2022-12-29T07:52:59;4.97;;;2.92;;
60494;SDS011;46342;49.046;11.920;2022-12-29T07:55:24;3.80;;;2.90;;
60494;SDS011;46342;49.046;11.920;2022-12-29T07:57:52;3.92;;;2.67;;
60494;SDS011;46342;49.046;11.920;2022-12-29T08:00:18;3.65;;;3.13;;
60494;SDS011;46342;49.046;11.920;2022-12-29T08:02:44;4.53;;;2.88;;
60494;SDS011;46342;49.046;11.920;2022-12-29T08:05:10;3.83;;;2.85;;
60494;SDS011;46342;49.046;11.920;2022-12-29T08:07:35;4.60;;;2.90;;
60494;SDS011;46342;49.046;11.920;2022-12-29T08:10:01;5.60;;;3.72;;
60494;SDS011;46342;49.046;11.920;2022-12-29T08:12:26;5.20;;;3.47;;
60494;SDS011;46342;49.046;11.920;2022-12-29T08:14:52;5.22;;;3.63;;
60494;SDS011;46342;49.046;11.920;2022-12-29T08:17:18;4.75;;;3.70;;
60494;SDS011;46342;49.046;11.920;2022-12-29T08:19:43;4.72;;;3.83;;
60494;SDS011;46342;49.046;11.920;2022-12-29T08:22:09;5.90;;;3.95;;
60494;SDS011;46342;49.046;11.920;2022-12-29T08:24:34;5.97;;;3.67;;
60494;SDS011;46342;49.046;11.920;2022-12-29T08:27:00;4.55;;;3.50;;
60494;SDS011;46342;49.046;11.920;2022-12-29T08:29:26;5.10;;;3.63;;
60494;SDS011;46342;49.046;11.920;2022-12-29T08:31:52;8.02;;;5.22;;
60494;SDS011;46342;49.046;11.920;2022-12-29T08:34:17;8.50;;;4.72;;
60494;SDS011;46342;49.046;11.920;2022-12-29T08:36:43;6.72;;;4.45;;
60494;SDS011;46342;49.046;11.920;2022-12-29T08:39:09;5.13;;;3.55;;
60494;SDS011;46342;49.046;11.920;2022-12-29T08:41:34;4.72;;;3.08;;
60494;SDS011;46342;49.046;11.920;2022-12-29T08:44:00;6.00;;;3.60;;
60494;SDS011;46342;49.046;11.920;2022-12-29T08:46:25;4.35;;;3.33;;
60494;SDS011;46342;49.046;11.920;2022-12-29T08:48:51;4.00;;;3.15;;
60494;SDS011;46342;49.046;11.920;2022-12-29T08:51:17;5.15;;;2.85;;
60494;SDS011;46342;49.046;11.920;2022-12-29T08:53:43;4.47;;;2.65;;
60494;SDS011;46342;49.046;11.920;2022-12-29T08:56:09;2.90;;;2.40;;
60494;SDS011;46342;49.046;11.920;2022-12-29T08:58:36;4.10;;;2.93;;
60494;SDS011;46342;49.046;11.920;2022-12-29T09:01:02;4.72;;;2.63;;
60494;SDS011;46342;49.046;11.920;2022-12-29T09:03:28;4.32;;;3.22;;
60494;SDS011;46342;49.046;11.920;2022-12-29T09:05:53;4.72;;;3.13;;
60494;SDS011;46342;49.046;11.920;2022-12-29T09:08:20;3.53;;;2.92;;
60494;SDS011;46342;49.046;11.920;2022-12-29T09:10:46;4.95;;;3.50;;
60494;SDS011;46342;49.046;11.920;2022-12-29T09:13:12;6.38;;;4.20;;
60494;SDS011;46342;49.046;11.920;2022-12-29T09:15:39;8.75;;;4.65;;
60494;SDS011;46342;49.046;11.920;2022-12-29T09:18:05;6.75;;;3.92;;
60494;SDS011;46342;49.046;11.920;2022-12-29T09:20:32;5.10;;;3.78;;
60494;SDS011;46342;49.046;11.920;2022-12-29T09:22:58;4.47;;;3.53;;
60494;SDS011;46342;49.046;11.920;2022-12-29T09:25:25;5.10;;;3.78;;
60494;SDS011;46342;49.046;11.920;2022-12-29T09:27:51;5.03;;;3.33;;
60494;SDS011;46342;49.046;11.920;2022-12-29T09:30:20;3.22;;;2.60;;
60494;SDS011;46342;49.046;11.920;2022-12-29T09:32:47;3.67;;;2.78;;
60494;SDS011;46342;49.046;11.920;2022-12-29T09:35:13;4.35;;;3.10;;
60494;SDS011;46342;49.046;11.920;2022-12-29T09:37:40;3.50;;;2.95;;
60494;SDS011;46342;49.046;11.920;2022-12-29T09:40:06;3.72;;;2.85;;
60494;SDS011;46342;49.046;11.920;2022-12-29T09:42:41;3.97;;;2.95;;
60494;SDS011;46342;49.046;11.920;2022-12-29T09:45:20;5.35;;;3.35;;
60494;SDS011;46342;49.046;11.920;2022-12-29T09:48:06;4.10;;;3.13;;
60494;SDS011;46342;49.046;11.920;2022-12-29T09:50:43;4.28;;;3.20;;
60494;SDS011;46342;49.046;11.920;2022-12-29T09:55:49;4.63;;;3.38;;
60494;SDS011;46342;49.046;11.920;2022-12-29T10:00:52;3.83;;;2.92;;
60494;SDS011;46342;49.046;11.920;2022-12-29T10:03:26;3.03;;;2.38;;
60494;SDS011;46342;49.046;11.920;2022-12-29T10:06:11;3.30;;;2.30;;
60494;SDS011;46342;49.046;11.920;2022-12-29T10:08:38;4.60;;;2.95;;
60494;SDS011;46342;49.046;11.920;2022-12-29T10:25:26;2.45;;;2.15;;
60494;SDS011;46342;49.046;11.920;2022-12-29T10:27:53;3.58;;;2.35;;
60494;SDS011;46342;49.046;11.920;2022-12-29T10:30:24;3.35;;;2.00;;
60494;SDS011;46342;49.046;11.920;2022-12-29T10:35:32;2.83;;;1.98;;
60494;SDS011;46342;49.046;11.920;2022-12-29T10:38:11;2.83;;;1.83;;
60494;SDS011;46342;49.046;11.920;2022-12-29T10:41:15;6.07;;;1.77;;
60494;SDS011;46342;49.046;11.920;2022-12-29T10:43:46;3.38;;;1.75;;
60494;SDS011;46342;49.046;11.920;2022-12-29T10:46:14;3.25;;;1.70;;
60494;SDS011;46342;49.046;11.920;2022-12-29T10:48:43;2.35;;;1.55;;
60494;SDS011;46342;49.046;11.920;2022-12-29T10:51:13;2.17;;;1.63;;
60494;SDS011;46342;49.046;11.920;2022-12-29T10:53:59;2.00;;;1.63;;
60494;SDS011;46342;49.046;11.920;2022-12-29T10:56:36;2.15;;;1.70;;
60494;SDS011;46342;49.046;11.920;2022-12-29T11:02:06;3.15;;;1.70;;
60494;SDS011;46342;49.046;11.920;2022-12-29T11:07:33;4.85;;;1.50;;
60494;SDS011;46342;49.046;11.920;2022-12-29T11:15:43;3.30;;;2.08;;
60494;SDS011;46342;49.046;11.920;2022-12-29T11:20:43;2.03;;;1.52;;
60494;SDS011;46342;49.046;11.920;2022-12-29T11:23:21;2.13;;;1.60;;
60494;SDS011;46342;49.046;11.920;2022-12-29T11:26:13;1.70;;;1.45;;
60494;SDS011;46342;49.046;11.920;2022-12-29T11:28:47;3.30;;;1.48;;
60494;SDS011;46342;49.046;11.920;2022-12-29T11:31:28;2.30;;;1.52;;
60494;SDS011;46342;49.046;11.920;2022-12-29T11:33:54;3.67;;;1.63;;
60494;SDS011;46342;49.046;11.920;2022-12-29T11:36:21;3.70;;;1.77;;
60494;SDS011;46342;49.046;11.920;2022-12-29T11:38:49;3.20;;;1.70;;
60494;SDS011;46342;49.046;11.920;2022-12-29T11:41:29;2.35;;;1.73;;
60494;SDS011;46342;49.046;11.920;2022-12-29T11:44:00;1.77;;;1.42;;
60494;SDS011;46342;49.046;11.920;2022-12-29T11:46:30;3.67;;;1.73;;
60494;SDS011;46342;49.046;11.920;2022-12-29T11:49:01;1.70;;;1.50;;
60494;SDS011;46342;49.046;11.920;2022-12-29T11:51:29;3.72;;;1.60;;
60494;SDS011;46342;49.046;11.920;2022-12-29T11:54:19;3.72;;;1.50;;
60494;SDS011;46342;49.046;11.920;2022-12-29T11:56:54;3.15;;;1.42;;
60494;SDS011;46342;49.046;11.920;2022-12-29T11:59:34;1.75;;;1.40;;
60494;SDS011;46342;49.046;11.920;2022-12-29T12:02:20;1.70;;;1.15;;
60494;SDS011;46342;49.046;11.920;2022-12-29T12:05:32;2.53;;;1.30;;
60494;SDS011;46342;49.046;11.920;2022-12-29T12:07:54;1.70;;;1.20;;
60494;SDS011;46342;49.046;11.920;2022-12-29T12:10:28;1.30;;;1.08;;
60494;SDS011;46342;49.046;11.920;2022-12-29T12:16:05;1.92;;;1.27;;
60494;SDS011;46342;49.046;11.920;2022-12-29T12:21:22;1.25;;;1.13;;
60494;SDS011;46342;49.046;11.920;2022-12-29T12:29:50;2.17;;;1.15;;
60494;SDS011;46342;49.046;11.920;2022-12-29T12:35:10;1.70;;;1.08;;
60494;SDS011;46342;49.046;11.920;2022-12-29T12:40:43;1.80;;;1.10;;
60494;SDS011;46342;49.046;11.920;2022-12-29T12:48:46;2.83;;;1.30;;
60494;SDS011;46342;49.046;11.920;2022-12-29T12:51:23;2.45;;;1.30;;
60494;SDS011;46342;49.046;11.920;2022-12-29T12:54:35;1.92;;;1.48;;
60494;SDS011;46342;49.046;11.920;2022-12-29T13:00:00;1.40;;;1.20;;
60494;SDS011;46342;49.046;11.920;2022-12-29T13:02:37;1.85;;;1.33;;
60494;SDS011;46342;49.046;11.920;2022-12-29T13:07:59;1.85;;;1.30;;
60494;SDS011;46342;49.046;11.920;2022-12-29T13:13:33;3.03;;;1.20;;
60494;SDS011;46342;49.046;11.920;2022-12-29T13:16:17;1.20;;;1.10;;
60494;SDS011;46342;49.046;11.920;2022-12-29T13:19:30;1.30;;;1.05;;
60494;SDS011;46342;49.046;11.920;2022-12-29T13:22:25;2.45;;;1.30;;
60494;SDS011;46342;49.046;11.920;2022-12-29T13:25:33;1.80;;;1.35;;
60494;SDS011;46342;49.046;11.920;2022-12-29T13:28:16;2.88;;;1.40;;
60494;SDS011;46342;49.046;11.920;2022-12-29T13:33:28;2.17;;;1.30;;
60494;SDS011;46342;49.046;11.920;2022-12-29T13:39:00;1.73;;;1.35;;
60494;SDS011;46342;49.046;11.920;2022-12-29T13:41:51;1.25;;;0.90;;
60494;SDS011;46342;49.046;11.920;2022-12-29T13:44:22;2.50;;;1.30;;
60494;SDS011;46342;49.046;11.920;2022-12-29T13:47:00;4.25;;;1.90;;
60494;SDS011;46342;49.046;11.920;2022-12-29T13:49:35;3.08;;;1.48;;
60494;SDS011;46342;49.046;11.920;2022-12-29T13:52:08;1.55;;;1.15;;
60494;SDS011;46342;49.046;11.920;2022-12-29T13:57:31;2.55;;;1.42;;
60494;SDS011;46342;49.046;11.920;2022-12-29T14:00:15;5.00;;;1.70;;
60494;SDS011;46342;49.046;11.920;2022-12-29T14:07:43;1.80;;;1.30;;
60494;SDS011;46342;49.046;11.920;2022-12-29T14:10:26;1.55;;;1.20;;
60494;SDS011;46342;49.046;11.920;2022-12-29T14:13:12;3.42;;;1.23;;
60494;SDS011;46342;49.046;11.920;2022-12-29T14:15:42;2.65;;;1.60;;
60494;SDS011;46342;49.046;11.920;2022-12-29T14:18:25;4.43;;;1.20;;
60494;SDS011;46342;49.046;11.920;2022-12-29T14:20:54;1.98;;;1.13;;
60494;SDS011;46342;49.046;11.920;2022-12-29T14:28:35;1.10;;;0.90;;
60494;SDS011;46342;49.046;11.920;2022-12-29T14:34:30;1.25;;;1.00;;
60494;SDS011;46342;49.046;11.920;2022-12-29T14:36:42;1.10;;;0.98;;
60494;SDS011;46342;49.046;11.920;2022-12-29T14:42:05;1.20;;;1.02;;
60494;SDS011;46342;49.046;11.920;2022-12-29T14:44:45;1.08;;;0.80;;
60494;SDS011;46342;49.046;11.920;2022-12-29T14:49:55;1.42;;;1.10;;
60494;SDS011;46342;49.046;11.920;2022-12-29T14:52:25;2.63;;;1.00;;
60494;SDS011;46342;49.046;11.920;2022-12-29T14:55:28;1.10;;;1.00;;
60494;SDS011;46342;49.046;11.920;2022-12-29T14:57:57;2.17;;;1.15;;
60494;SDS011;46342;49.046;11.920;2022-12-29T15:00:30;1.77;;;1.02;;
60494;SDS011;46342;49.046;11.920;2022-12-29T15:03:05;1.02;;;0.98;;
60494;SDS011;46342;49.046;11.920;2022-12-29T15:05:34;1.92;;;1.33;;
60494;SDS011;46342;49.046;11.920;2022-12-29T15:08:16;3.50;;;1.20;;
60494;SDS011;46342;49.046;11.920;2022-12-29T15:10:45;1.40;;;1.30;;
60494;SDS011;46342;49.046;11.920;2022-12-29T15:13:21;3.75;;;1.42;;
60494;SDS011;46342;49.046;11.920;2022-12-29T15:15:50;2.33;;;1.25;;
60494;SDS011;46342;49.046;11.920;2022-12-29T15:21:00;1.40;;;1.30;;
60494;SDS011;46342;49.046;11.920;2022-12-29T15:23:29;1.50;;;1.40;;
60494;SDS011;46342;49.046;11.920;2022-12-29T15:25:58;2.22;;;1.50;;
60494;SDS011;46342;49.046;11.920;2022-12-29T15:28:26;2.67;;;1.45;;
60494;SDS011;46342;49.046;11.920;2022-12-29T15:31:01;2.73;;;1.47;;
60494;SDS011;46342;49.046;11.920;2022-12-29T15:33:28;1.85;;;1.40;;
60494;SDS011;46342;49.046;11.920;2022-12-29T15:35:55;3.50;;;2.38;;
60494;SDS011;46342;49.046;11.920;2022-12-29T15:38:27;2.92;;;1.75;;
60494;SDS011;46342;49.046;11.920;2022-12-29T15:40:55;4.85;;;1.40;;
60494;SDS011;46342;49.046;11.920;2022-12-29T15:46:13;2.35;;;1.98;;
60494;SDS011;46342;49.046;11.920;2022-12-29T15:48:39;3.00;;;2.05;;
60494;SDS011;46342;49.046;11.920;2022-12-29T15:51:51;3.05;;;2.03;;
60494;SDS011;46342;49.046;11.920;2022-12-29T15:53:54;3.17;;;1.70;;
60494;SDS011;46342;49.046;11.920;2022-12-29T15:56:20;2.72;;;1.60;;
60494;SDS011;46342;49.046;11.920;2022-12-29T15:58:47;2.10;;;1.75;;
60494;SDS011;46342;49.046;11.920;2022-12-29T16:01:27;3.17;;;2.15;;
60494;SDS011;46342;49.046;11.920;2022-12-29T16:03:56;3.45;;;1.85;;
60494;SDS011;46342;49.046;11.920;2022-12-29T16:06:28;3.88;;;2.25;;
60494;SDS011;46342;49.046;11.920;2022-12-29T16:14:19;2.00;;;1.67;;
60494;SDS011;46342;49.046;11.920;2022-12-29T16:16:48;2.83;;;1.92;;
60494;SDS011;46342;49.046;11.920;2022-12-29T16:19:23;3.97;;;1.83;;
60494;SDS011;46342;49.046;11.920;2022-12-29T16:21:53;1.90;;;1.58;;
60494;SDS011;46342;49.046;11.920;2022-12-29T16:24:20;2.80;;;2.03;;
60494;SDS011;46342;49.046;11.920;2022-12-29T16:27:07;5.72;;;1.98;;
60494;SDS011;46342;49.046;11.920;2022-12-29T16:29:46;1.75;;;1.63;;
60494;SDS011;46342;49.046;11.920;2022-12-29T16:32:24;4.30;;;1.98;;
60494;SDS011;46342;49.046;11.920;2022-12-29T16:37:37;6.15;;;3.63;;
60494;SDS011;46342;49.046;11.920;2022-12-29T16:40:23;7.38;;;4.18;;
60494;SDS011;46342;49.046;11.920;2022-12-29T16:42:56;4.95;;;3.55;;
60494;SDS011;46342;49.046;11.920;2022-12-29T16:50:39;7.35;;;4.25;;
60494;SDS011;46342;49.046;11.920;2022-12-29T16:53:20;7.70;;;4.40;;
60494;SDS011;46342;49.046;11.920;2022-12-29T16:55:50;5.05;;;3.38;;
60494;SDS011;46342;49.046;11.920;2022-12-29T16:58:22;4.55;;;2.85;;
60494;SDS011;46342;49.046;11.920;2022-12-29T17:00:56;6.50;;;4.28;;
60494;SDS011;46342;49.046;11.920;2022-12-29T17:03:27;5.35;;;3.45;;
60494;SDS011;46342;49.046;11.920;2022-12-29T17:05:57;8.05;;;5.20;;
60494;SDS011;46342;49.046;11.920;2022-12-29T17:08:23;4.95;;;3.00;;
60494;SDS011;46342;49.046;11.920;2022-12-29T17:10:49;5.90;;;2.40;;
60494;SDS011;46342;49.046;11.920;2022-12-29T17:13:35;4.72;;;2.85;;
60494;SDS011;46342;49.046;11.920;2022-12-29T17:16:01;12.23;;;4.00;;
60494;SDS011;46342;49.046;11.920;2022-12-29T17:18:26;4.35;;;2.40;;
60494;SDS011;46342;49.046;11.920;2022-12-29T17:20:52;3.00;;;2.38;;
60494;SDS011;46342;49.046;11.920;2022-12-29T17:23:17;4.72;;;2.83;;
60494;SDS011;46342;49.046;11.920;2022-12-29T17:25:43;4.65;;;2.92;;
60494;SDS011;46342;49.046;11.920;2022-12-29T17:30:43;5.43;;;3.35;;
60494;SDS011;46342;49.046;11.920;2022-12-29T17:33:10;4.15;;;2.85;;